sensor_id;sensor_type;location;lat;lon;timestamp;P1;durP1;ratioP1;P2;durP2;ratioP2
39958;SDS011;25639;53.634;9.880;2023-05-10T00:00:26;5.35;;;2.80;;
39958;SDS011;25639;53.634;9.880;2023-05-10T00:02:52;7.30;;;3.28;;
39958;SDS011;25639;53.634;9.880;2023-05-10T00:05:17;10.10;;;3.10;;
39958;SDS011;25639;53.634;9.880;2023-05-10T00:07:43;8.27;;;3.00;;
39958;SDS011;25639;53.634;9.880;2023-05-10T00:10:10;5.65;;;3.10;;
39958;SDS011;25639;53.634;9.880;2023-05-10T00:12:35;10.60;;;3.13;;
39958;SDS011;25639;53.634;9.880;2023-05-10T00:15:01;5.90;;;3.35;;
39958;SDS011;25639;53.634;9.880;2023-05-10T00:17:26;8.75;;;3.28;;
39958;SDS011;25639;53.634;9.880;2023-05-10T00:19:51;7.82;;;3.40;;
39958;SDS011;25639;53.634;9.880;2023-05-10T00:22:17;5.50;;;3.28;;
39958;SDS011;25639;53.634;9.880;2023-05-10T00:24:42;5.78;;;3.03;;
39958;SDS011;25639;53.634;9.880;2023-05-10T00:27:07;8.82;;;3.25;;
39958;SDS011;25639;53.634;9.880;2023-05-10T00:29:33;6.43;;;2.97;;
39958;SDS011;25639;53.634;9.880;2023-05-10T00:31:58;8.93;;;3.65;;
39958;SDS011;25639;53.634;9.880;2023-05-10T00:34:24;6.65;;;3.47;;
39958;SDS011;25639;53.634;9.880;2023-05-10T00:36:49;6.15;;;3.55;;
39958;SDS011;25639;53.634;9.880;2023-05-10T00:39:14;5.63;;;2.97;;
39958;SDS011;25639;53.634;9.880;2023-05-10T00:41:40;6.57;;;3.42;;
39958;SDS011;25639;53.634;9.880;2023-05-10T00:44:05;7.13;;;3.58;;
39958;SDS011;25639;53.634;9.880;2023-05-10T00:46:30;6.57;;;3.33;;
39958;SDS011;25639;53.634;9.880;2023-05-10T00:48:56;9.30;;;3.40;;
39958;SDS011;25639;53.634;9.880;2023-05-10T00:51:22;9.57;;;3.60;;
39958;SDS011;25639;53.634;9.880;2023-05-10T00:53:47;5.75;;;3.58;;
39958;SDS011;25639;53.634;9.880;2023-05-10T00:56:14;8.55;;;4.18;;
39958;SDS011;25639;53.634;9.880;2023-05-10T00:58:40;5.80;;;3.72;;
39958;SDS011;25639;53.634;9.880;2023-05-10T01:01:06;6.18;;;3.88;;
39958;SDS011;25639;53.634;9.880;2023-05-10T01:03:33;7.55;;;3.63;;
39958;SDS011;25639;53.634;9.880;2023-05-10T01:05:59;8.90;;;3.75;;
39958;SDS011;25639;53.634;9.880;2023-05-10T01:08:24;9.30;;;3.35;;
39958;SDS011;25639;53.634;9.880;2023-05-10T01:10:50;6.22;;;3.40;;
39958;SDS011;25639;53.634;9.880;2023-05-10T01:13:18;5.53;;;3.33;;
39958;SDS011;25639;53.634;9.880;2023-05-10T01:15:55;9.48;;;3.60;;
39958;SDS011;25639;53.634;9.880;2023-05-10T01:18:21;7.32;;;3.50;;
39958;SDS011;25639;53.634;9.880;2023-05-10T01:20:47;8.07;;;3.60;;
39958;SDS011;25639;53.634;9.880;2023-05-10T01:23:36;8.52;;;3.70;;
39958;SDS011;25639;53.634;9.880;2023-05-10T01:34:36;6.97;;;3.78;;
39958;SDS011;25639;53.634;9.880;2023-05-10T01:37:11;5.20;;;3.60;;
39958;SDS011;25639;53.634;9.880;2023-05-10T01:42:16;5.50;;;3.50;;
39958;SDS011;25639;53.634;9.880;2023-05-10T01:47:35;9.18;;;3.78;;
39958;SDS011;25639;53.634;9.880;2023-05-10T01:50:06;12.43;;;3.75;;
39958;SDS011;25639;53.634;9.880;2023-05-10T01:52:41;7.45;;;3.78;;
39958;SDS011;25639;53.634;9.880;2023-05-10T01:55:09;11.90;;;4.03;;
39958;SDS011;25639;53.634;9.880;2023-05-10T01:57:39;5.68;;;3.60;;
39958;SDS011;25639;53.634;9.880;2023-05-10T02:00:08;15.35;;;4.15;;
39958;SDS011;25639;53.634;9.880;2023-05-10T02:02:36;6.45;;;3.90;;
39958;SDS011;25639;53.634;9.880;2023-05-10T02:05:03;7.72;;;4.18;;
39958;SDS011;25639;53.634;9.880;2023-05-10T02:07:30;6.07;;;3.72;;
39958;SDS011;25639;53.634;9.880;2023-05-10T02:09:59;7.55;;;4.10;;
39958;SDS011;25639;53.634;9.880;2023-05-10T02:12:26;10.32;;;4.20;;
39958;SDS011;25639;53.634;9.880;2023-05-10T02:14:53;7.03;;;4.10;;
39958;SDS011;25639;53.634;9.880;2023-05-10T02:17:20;8.40;;;3.80;;
39958;SDS011;25639;53.634;9.880;2023-05-10T02:19:46;10.25;;;4.25;;
39958;SDS011;25639;53.634;9.880;2023-05-10T02:22:12;8.57;;;4.10;;
39958;SDS011;25639;53.634;9.880;2023-05-10T02:24:39;10.35;;;4.13;;
39958;SDS011;25639;53.634;9.880;2023-05-10T02:27:05;7.63;;;3.85;;
39958;SDS011;25639;53.634;9.880;2023-05-10T02:29:31;6.68;;;4.00;;
39958;SDS011;25639;53.634;9.880;2023-05-10T02:31:58;5.22;;;4.10;;
39958;SDS011;25639;53.634;9.880;2023-05-10T02:34:28;9.10;;;3.60;;
39958;SDS011;25639;53.634;9.880;2023-05-10T02:36:54;8.15;;;4.15;;
39958;SDS011;25639;53.634;9.880;2023-05-10T02:39:21;10.50;;;4.30;;
39958;SDS011;25639;53.634;9.880;2023-05-10T02:41:47;9.77;;;3.88;;
39958;SDS011;25639;53.634;9.880;2023-05-10T02:44:14;8.02;;;3.58;;
39958;SDS011;25639;53.634;9.880;2023-05-10T02:46:41;9.25;;;4.18;;
39958;SDS011;25639;53.634;9.880;2023-05-10T02:49:07;8.27;;;4.57;;
39958;SDS011;25639;53.634;9.880;2023-05-10T02:51:34;10.77;;;4.50;;
39958;SDS011;25639;53.634;9.880;2023-05-10T02:54:04;8.88;;;3.88;;
39958;SDS011;25639;53.634;9.880;2023-05-10T02:59:01;8.05;;;3.97;;
39958;SDS011;25639;53.634;9.880;2023-05-10T03:01:26;6.35;;;3.55;;
39958;SDS011;25639;53.634;9.880;2023-05-10T03:03:52;10.30;;;4.07;;
39958;SDS011;25639;53.634;9.880;2023-05-10T03:06:17;7.68;;;4.47;;
39958;SDS011;25639;53.634;9.880;2023-05-10T03:08:43;8.20;;;3.88;;
39958;SDS011;25639;53.634;9.880;2023-05-10T03:14:08;4.80;;;3.75;;
39958;SDS011;25639;53.634;9.880;2023-05-10T03:16:46;7.32;;;4.25;;
39958;SDS011;25639;53.634;9.880;2023-05-10T03:19:22;8.32;;;4.07;;
39958;SDS011;25639;53.634;9.880;2023-05-10T03:21:52;8.82;;;4.60;;
39958;SDS011;25639;53.634;9.880;2023-05-10T03:24:21;8.45;;;3.90;;
39958;SDS011;25639;53.634;9.880;2023-05-10T03:26:48;9.60;;;4.50;;
39958;SDS011;25639;53.634;9.880;2023-05-10T03:29:15;10.25;;;4.07;;
39958;SDS011;25639;53.634;9.880;2023-05-10T03:31:41;10.93;;;4.18;;
39958;SDS011;25639;53.634;9.880;2023-05-10T03:34:06;9.00;;;4.18;;
39958;SDS011;25639;53.634;9.880;2023-05-10T03:36:31;6.90;;;4.05;;
39958;SDS011;25639;53.634;9.880;2023-05-10T03:38:57;7.78;;;4.30;;
39958;SDS011;25639;53.634;9.880;2023-05-10T03:41:22;9.00;;;4.13;;
39958;SDS011;25639;53.634;9.880;2023-05-10T03:43:47;7.47;;;4.13;;
39958;SDS011;25639;53.634;9.880;2023-05-10T03:46:13;9.43;;;4.30;;
39958;SDS011;25639;53.634;9.880;2023-05-10T03:48:38;12.05;;;4.40;;
39958;SDS011;25639;53.634;9.880;2023-05-10T03:51:03;5.80;;;4.10;;
39958;SDS011;25639;53.634;9.880;2023-05-10T03:53:29;12.60;;;4.50;;
39958;SDS011;25639;53.634;9.880;2023-05-10T03:55:54;10.18;;;4.40;;
39958;SDS011;25639;53.634;9.880;2023-05-10T03:58:19;6.50;;;4.00;;
39958;SDS011;25639;53.634;9.880;2023-05-10T04:00:45;10.40;;;4.20;;
39958;SDS011;25639;53.634;9.880;2023-05-10T04:03:10;13.02;;;4.43;;
39958;SDS011;25639;53.634;9.880;2023-05-10T04:05:36;7.88;;;4.43;;
39958;SDS011;25639;53.634;9.880;2023-05-10T04:08:02;7.45;;;4.05;;
39958;SDS011;25639;53.634;9.880;2023-05-10T04:10:28;12.05;;;5.22;;
39958;SDS011;25639;53.634;9.880;2023-05-10T04:12:53;11.27;;;4.13;;
39958;SDS011;25639;53.634;9.880;2023-05-10T04:15:18;12.82;;;4.30;;
39958;SDS011;25639;53.634;9.880;2023-05-10T04:17:44;9.27;;;4.60;;
39958;SDS011;25639;53.634;9.880;2023-05-10T04:20:09;8.07;;;4.57;;
39958;SDS011;25639;53.634;9.880;2023-05-10T04:22:35;8.90;;;4.38;;
39958;SDS011;25639;53.634;9.880;2023-05-10T04:25:01;13.27;;;4.43;;
39958;SDS011;25639;53.634;9.880;2023-05-10T04:27:29;9.98;;;4.63;;
39958;SDS011;25639;53.634;9.880;2023-05-10T04:29:55;8.00;;;4.10;;
39958;SDS011;25639;53.634;9.880;2023-05-10T04:32:20;9.90;;;4.82;;
39958;SDS011;25639;53.634;9.880;2023-05-10T04:34:45;10.18;;;4.22;;
39958;SDS011;25639;53.634;9.880;2023-05-10T04:37:23;9.82;;;4.35;;
39958;SDS011;25639;53.634;9.880;2023-05-10T04:39:51;9.23;;;4.30;;
39958;SDS011;25639;53.634;9.880;2023-05-10T04:42:17;11.60;;;4.75;;
39958;SDS011;25639;53.634;9.880;2023-05-10T04:44:42;7.32;;;4.28;;
39958;SDS011;25639;53.634;9.880;2023-05-10T04:47:07;9.85;;;4.53;;
39958;SDS011;25639;53.634;9.880;2023-05-10T04:49:33;9.27;;;4.53;;
39958;SDS011;25639;53.634;9.880;2023-05-10T04:51:58;7.78;;;4.10;;
39958;SDS011;25639;53.634;9.880;2023-05-10T04:54:23;5.90;;;3.90;;
39958;SDS011;25639;53.634;9.880;2023-05-10T04:56:49;6.93;;;4.30;;
39958;SDS011;25639;53.634;9.880;2023-05-10T04:59:14;9.70;;;4.78;;
39958;SDS011;25639;53.634;9.880;2023-05-10T05:01:39;6.93;;;4.50;;
39958;SDS011;25639;53.634;9.880;2023-05-10T05:04:05;12.88;;;4.88;;
39958;SDS011;25639;53.634;9.880;2023-05-10T05:06:30;13.00;;;4.38;;
39958;SDS011;25639;53.634;9.880;2023-05-10T05:08:55;10.80;;;4.88;;
39958;SDS011;25639;53.634;9.880;2023-05-10T05:11:21;8.07;;;4.07;;
39958;SDS011;25639;53.634;9.880;2023-05-10T05:13:50;10.98;;;4.85;;
39958;SDS011;25639;53.634;9.880;2023-05-10T05:16:15;8.38;;;4.18;;
39958;SDS011;25639;53.634;9.880;2023-05-10T05:18:40;8.82;;;4.45;;
39958;SDS011;25639;53.634;9.880;2023-05-10T05:21:16;11.02;;;4.75;;
39958;SDS011;25639;53.634;9.880;2023-05-10T05:23:42;9.60;;;4.25;;
39958;SDS011;25639;53.634;9.880;2023-05-10T05:26:07;11.20;;;4.53;;
39958;SDS011;25639;53.634;9.880;2023-05-10T05:28:32;8.63;;;4.00;;
39958;SDS011;25639;53.634;9.880;2023-05-10T05:31:02;6.30;;;4.25;;
39958;SDS011;25639;53.634;9.880;2023-05-10T05:33:27;10.68;;;4.68;;
39958;SDS011;25639;53.634;9.880;2023-05-10T05:35:52;10.88;;;4.95;;
39958;SDS011;25639;53.634;9.880;2023-05-10T05:38:17;8.00;;;4.10;;
39958;SDS011;25639;53.634;9.880;2023-05-10T05:40:43;6.10;;;3.95;;
39958;SDS011;25639;53.634;9.880;2023-05-10T05:43:08;9.35;;;4.10;;
39958;SDS011;25639;53.634;9.880;2023-05-10T05:45:33;7.85;;;4.30;;
39958;SDS011;25639;53.634;9.880;2023-05-10T05:48:04;10.85;;;4.60;;
39958;SDS011;25639;53.634;9.880;2023-05-10T05:50:29;7.97;;;4.75;;
39958;SDS011;25639;53.634;9.880;2023-05-10T05:52:55;6.57;;;4.28;;
39958;SDS011;25639;53.634;9.880;2023-05-10T05:55:21;7.97;;;4.35;;
39958;SDS011;25639;53.634;9.880;2023-05-10T05:57:46;7.07;;;4.38;;
39958;SDS011;25639;53.634;9.880;2023-05-10T06:00:12;9.75;;;4.60;;
39958;SDS011;25639;53.634;9.880;2023-05-10T06:02:38;7.10;;;4.38;;
39958;SDS011;25639;53.634;9.880;2023-05-10T06:05:03;9.27;;;4.75;;
39958;SDS011;25639;53.634;9.880;2023-05-10T06:07:28;9.48;;;4.30;;
39958;SDS011;25639;53.634;9.880;2023-05-10T06:09:54;9.48;;;4.50;;
39958;SDS011;25639;53.634;9.880;2023-05-10T06:12:19;13.00;;;4.78;;
39958;SDS011;25639;53.634;9.880;2023-05-10T06:14:45;8.95;;;4.00;;
39958;SDS011;25639;53.634;9.880;2023-05-10T06:17:10;12.57;;;4.03;;
39958;SDS011;25639;53.634;9.880;2023-05-10T06:19:35;9.18;;;4.20;;
39958;SDS011;25639;53.634;9.880;2023-05-10T06:22:01;10.35;;;4.22;;
39958;SDS011;25639;53.634;9.880;2023-05-10T06:24:27;7.93;;;4.38;;
39958;SDS011;25639;53.634;9.880;2023-05-10T06:26:52;13.38;;;4.45;;
39958;SDS011;25639;53.634;9.880;2023-05-10T06:29:17;7.15;;;4.30;;
39958;SDS011;25639;53.634;9.880;2023-05-10T06:31:43;10.77;;;4.20;;
39958;SDS011;25639;53.634;9.880;2023-05-10T06:34:08;8.35;;;4.57;;
39958;SDS011;25639;53.634;9.880;2023-05-10T06:41:42;12.38;;;4.35;;
39958;SDS011;25639;53.634;9.880;2023-05-10T06:44:07;12.55;;;4.57;;
39958;SDS011;25639;53.634;9.880;2023-05-10T06:46:33;12.15;;;4.57;;
39958;SDS011;25639;53.634;9.880;2023-05-10T06:48:58;9.20;;;5.05;;
39958;SDS011;25639;53.634;9.880;2023-05-10T06:51:23;11.15;;;4.68;;
39958;SDS011;25639;53.634;9.880;2023-05-10T06:53:49;9.55;;;4.93;;
39958;SDS011;25639;53.634;9.880;2023-05-10T06:56:14;10.98;;;4.40;;
39958;SDS011;25639;53.634;9.880;2023-05-10T06:58:40;9.00;;;4.55;;
39958;SDS011;25639;53.634;9.880;2023-05-10T07:01:05;12.38;;;4.50;;
39958;SDS011;25639;53.634;9.880;2023-05-10T07:03:31;9.63;;;4.57;;
39958;SDS011;25639;53.634;9.880;2023-05-10T07:06:03;10.15;;;4.55;;
39958;SDS011;25639;53.634;9.880;2023-05-10T07:08:32;9.95;;;4.28;;
39958;SDS011;25639;53.634;9.880;2023-05-10T07:11:02;9.68;;;5.15;;
39958;SDS011;25639;53.634;9.880;2023-05-10T07:13:29;9.32;;;4.47;;
39958;SDS011;25639;53.634;9.880;2023-05-10T07:15:56;9.00;;;4.57;;
39958;SDS011;25639;53.634;9.880;2023-05-10T07:18:21;14.63;;;4.55;;
39958;SDS011;25639;53.634;9.880;2023-05-10T07:20:46;11.82;;;5.03;;
39958;SDS011;25639;53.634;9.880;2023-05-10T07:23:11;7.20;;;4.55;;
39958;SDS011;25639;53.634;9.880;2023-05-10T07:25:37;15.35;;;5.18;;
39958;SDS011;25639;53.634;9.880;2023-05-10T07:28:02;9.93;;;4.68;;
39958;SDS011;25639;53.634;9.880;2023-05-10T07:30:28;13.63;;;4.85;;
39958;SDS011;25639;53.634;9.880;2023-05-10T07:32:53;21.13;;;5.05;;
39958;SDS011;25639;53.634;9.880;2023-05-10T07:35:18;7.93;;;5.00;;
39958;SDS011;25639;53.634;9.880;2023-05-10T07:37:43;9.10;;;5.28;;
39958;SDS011;25639;53.634;9.880;2023-05-10T07:40:09;11.60;;;5.15;;
39958;SDS011;25639;53.634;9.880;2023-05-10T07:42:34;6.28;;;4.60;;
39958;SDS011;25639;53.634;9.880;2023-05-10T07:45:00;9.30;;;4.40;;
39958;SDS011;25639;53.634;9.880;2023-05-10T07:47:25;11.10;;;4.55;;
39958;SDS011;25639;53.634;9.880;2023-05-10T07:49:50;9.73;;;4.97;;
39958;SDS011;25639;53.634;9.880;2023-05-10T07:52:16;12.65;;;5.03;;
39958;SDS011;25639;53.634;9.880;2023-05-10T07:54:41;10.80;;;5.05;;
39958;SDS011;25639;53.634;9.880;2023-05-10T07:57:06;6.30;;;4.65;;
39958;SDS011;25639;53.634;9.880;2023-05-10T07:59:32;13.27;;;4.90;;
39958;SDS011;25639;53.634;9.880;2023-05-10T08:01:57;8.48;;;4.93;;
39958;SDS011;25639;53.634;9.880;2023-05-10T08:04:23;13.75;;;5.10;;
39958;SDS011;25639;53.634;9.880;2023-05-10T08:06:48;10.77;;;4.60;;
39958;SDS011;25639;53.634;9.880;2023-05-10T08:09:14;10.18;;;4.70;;
39958;SDS011;25639;53.634;9.880;2023-05-10T08:11:39;7.07;;;4.60;;
39958;SDS011;25639;53.634;9.880;2023-05-10T08:14:05;12.90;;;4.47;;
39958;SDS011;25639;53.634;9.880;2023-05-10T08:16:30;8.60;;;4.57;;
39958;SDS011;25639;53.634;9.880;2023-05-10T08:18:55;13.52;;;4.93;;
39958;SDS011;25639;53.634;9.880;2023-05-10T08:21:20;11.80;;;4.25;;
39958;SDS011;25639;53.634;9.880;2023-05-10T08:23:46;20.35;;;4.88;;
39958;SDS011;25639;53.634;9.880;2023-05-10T08:26:11;14.10;;;4.60;;
39958;SDS011;25639;53.634;9.880;2023-05-10T08:28:36;11.05;;;4.60;;
39958;SDS011;25639;53.634;9.880;2023-05-10T08:31:02;8.35;;;5.13;;
39958;SDS011;25639;53.634;9.880;2023-05-10T08:33:27;11.88;;;4.88;;
39958;SDS011;25639;53.634;9.880;2023-05-10T08:35:52;12.00;;;4.53;;
39958;SDS011;25639;53.634;9.880;2023-05-10T08:38:18;12.00;;;4.80;;
39958;SDS011;25639;53.634;9.880;2023-05-10T08:40:43;14.20;;;4.88;;
39958;SDS011;25639;53.634;9.880;2023-05-10T08:43:10;10.93;;;4.53;;
39958;SDS011;25639;53.634;9.880;2023-05-10T08:45:40;10.35;;;5.38;;
39958;SDS011;25639;53.634;9.880;2023-05-10T08:48:09;10.98;;;4.88;;
39958;SDS011;25639;53.634;9.880;2023-05-10T08:50:36;6.97;;;5.00;;
39958;SDS011;25639;53.634;9.880;2023-05-10T08:53:04;11.98;;;5.22;;
39958;SDS011;25639;53.634;9.880;2023-05-10T08:55:32;16.27;;;5.20;;
39958;SDS011;25639;53.634;9.880;2023-05-10T08:57:58;8.48;;;4.50;;
39958;SDS011;25639;53.634;9.880;2023-05-10T09:00:24;8.02;;;4.70;;
39958;SDS011;25639;53.634;9.880;2023-05-10T09:02:50;9.35;;;4.70;;
39958;SDS011;25639;53.634;9.880;2023-05-10T09:05:15;7.63;;;4.45;;
39958;SDS011;25639;53.634;9.880;2023-05-10T09:07:42;9.18;;;4.40;;
39958;SDS011;25639;53.634;9.880;2023-05-10T09:10:08;6.60;;;4.30;;
39958;SDS011;25639;53.634;9.880;2023-05-10T09:12:34;9.45;;;4.70;;
39958;SDS011;25639;53.634;9.880;2023-05-10T09:15:00;8.77;;;5.15;;
39958;SDS011;25639;53.634;9.880;2023-05-10T09:17:26;8.23;;;5.10;;
39958;SDS011;25639;53.634;9.880;2023-05-10T09:19:58;13.93;;;5.68;;
39958;SDS011;25639;53.634;9.880;2023-05-10T09:22:24;7.45;;;4.70;;
39958;SDS011;25639;53.634;9.880;2023-05-10T09:25:03;8.48;;;4.78;;
39958;SDS011;25639;53.634;9.880;2023-05-10T09:27:39;8.70;;;5.47;;
39958;SDS011;25639;53.634;9.880;2023-05-10T09:30:06;9.45;;;5.05;;
39958;SDS011;25639;53.634;9.880;2023-05-10T09:32:39;9.35;;;5.20;;
39958;SDS011;25639;53.634;9.880;2023-05-10T09:35:13;9.15;;;5.55;;
39958;SDS011;25639;53.634;9.880;2023-05-10T09:37:40;9.60;;;5.55;;
39958;SDS011;25639;53.634;9.880;2023-05-10T09:40:11;11.15;;;5.47;;
39958;SDS011;25639;53.634;9.880;2023-05-10T09:42:38;13.77;;;5.50;;
39958;SDS011;25639;53.634;9.880;2023-05-10T09:45:05;7.72;;;5.55;;
39958;SDS011;25639;53.634;9.880;2023-05-10T09:47:32;11.40;;;5.70;;
39958;SDS011;25639;53.634;9.880;2023-05-10T09:49:58;10.50;;;5.32;;
39958;SDS011;25639;53.634;9.880;2023-05-10T09:52:28;13.15;;;5.43;;
39958;SDS011;25639;53.634;9.880;2023-05-10T09:54:54;10.77;;;6.05;;
39958;SDS011;25639;53.634;9.880;2023-05-10T09:57:20;7.82;;;5.57;;
39958;SDS011;25639;53.634;9.880;2023-05-10T09:59:47;10.23;;;5.75;;
39958;SDS011;25639;53.634;9.880;2023-05-10T10:02:13;12.05;;;5.90;;
39958;SDS011;25639;53.634;9.880;2023-05-10T10:04:39;10.02;;;5.95;;
39958;SDS011;25639;53.634;9.880;2023-05-10T10:07:05;14.65;;;6.10;;
39958;SDS011;25639;53.634;9.880;2023-05-10T10:09:31;11.30;;;6.57;;
39958;SDS011;25639;53.634;9.880;2023-05-10T10:11:57;10.07;;;6.50;;
39958;SDS011;25639;53.634;9.880;2023-05-10T10:14:24;10.80;;;6.63;;
39958;SDS011;25639;53.634;9.880;2023-05-10T10:16:51;9.60;;;6.35;;
39958;SDS011;25639;53.634;9.880;2023-05-10T10:19:17;14.77;;;7.20;;
39958;SDS011;25639;53.634;9.880;2023-05-10T10:21:44;14.23;;;7.78;;
39958;SDS011;25639;53.634;9.880;2023-05-10T10:24:09;12.43;;;7.43;;
39958;SDS011;25639;53.634;9.880;2023-05-10T10:26:35;12.45;;;8.30;;
39958;SDS011;25639;53.634;9.880;2023-05-10T10:32:11;15.30;;;7.85;;
39958;SDS011;25639;53.634;9.880;2023-05-10T10:34:45;12.45;;;7.93;;
39958;SDS011;25639;53.634;9.880;2023-05-10T10:37:11;14.27;;;8.70;;
39958;SDS011;25639;53.634;9.880;2023-05-10T10:39:37;14.98;;;8.10;;
39958;SDS011;25639;53.634;9.880;2023-05-10T10:42:02;12.85;;;9.15;;
39958;SDS011;25639;53.634;9.880;2023-05-10T10:49:50;16.27;;;9.27;;
39958;SDS011;25639;53.634;9.880;2023-05-10T10:55:08;11.75;;;9.10;;
39958;SDS011;25639;53.634;9.880;2023-05-10T11:03:06;19.15;;;10.13;;
39958;SDS011;25639;53.634;9.880;2023-05-10T11:05:38;14.32;;;9.77;;
39958;SDS011;25639;53.634;9.880;2023-05-10T11:08:13;13.07;;;10.27;;
39958;SDS011;25639;53.634;9.880;2023-05-10T11:10:39;16.60;;;11.20;;
39958;SDS011;25639;53.634;9.880;2023-05-10T11:13:13;19.85;;;10.20;;
39958;SDS011;25639;53.634;9.880;2023-05-10T11:15:39;13.77;;;10.57;;
39958;SDS011;25639;53.634;9.880;2023-05-10T11:18:21;15.23;;;10.07;;
39958;SDS011;25639;53.634;9.880;2023-05-10T11:23:29;14.45;;;10.45;;
39958;SDS011;25639;53.634;9.880;2023-05-10T11:25:56;14.60;;;10.30;;
39958;SDS011;25639;53.634;9.880;2023-05-10T11:28:23;21.85;;;11.07;;
39958;SDS011;25639;53.634;9.880;2023-05-10T11:30:49;15.85;;;10.40;;
39958;SDS011;25639;53.634;9.880;2023-05-10T11:33:16;15.65;;;10.52;;
39958;SDS011;25639;53.634;9.880;2023-05-10T11:35:42;14.85;;;10.10;;
39958;SDS011;25639;53.634;9.880;2023-05-10T11:38:08;15.80;;;10.57;;
39958;SDS011;25639;53.634;9.880;2023-05-10T11:40:36;13.70;;;10.32;;
39958;SDS011;25639;53.634;9.880;2023-05-10T11:43:03;17.45;;;11.30;;
39958;SDS011;25639;53.634;9.880;2023-05-10T11:45:29;16.45;;;10.95;;
39958;SDS011;25639;53.634;9.880;2023-05-10T11:47:57;17.15;;;10.80;;
39958;SDS011;25639;53.634;9.880;2023-05-10T11:50:23;18.45;;;10.93;;
39958;SDS011;25639;53.634;9.880;2023-05-10T11:55:54;19.45;;;12.18;;
39958;SDS011;25639;53.634;9.880;2023-05-10T11:58:20;15.25;;;10.27;;
39958;SDS011;25639;53.634;9.880;2023-05-10T12:00:46;12.45;;;9.93;;
39958;SDS011;25639;53.634;9.880;2023-05-10T12:03:12;14.05;;;10.02;;
39958;SDS011;25639;53.634;9.880;2023-05-10T12:05:38;15.00;;;9.57;;
39958;SDS011;25639;53.634;9.880;2023-05-10T12:08:13;15.75;;;9.40;;
39958;SDS011;25639;53.634;9.880;2023-05-10T12:10:39;20.50;;;10.43;;
39958;SDS011;25639;53.634;9.880;2023-05-10T12:13:04;15.77;;;9.65;;
39958;SDS011;25639;53.634;9.880;2023-05-10T12:15:30;14.95;;;9.70;;
39958;SDS011;25639;53.634;9.880;2023-05-10T12:17:55;22.63;;;10.02;;
39958;SDS011;25639;53.634;9.880;2023-05-10T12:20:22;14.05;;;9.63;;
39958;SDS011;25639;53.634;9.880;2023-05-10T12:22:52;12.88;;;9.32;;
39958;SDS011;25639;53.634;9.880;2023-05-10T12:25:20;14.68;;;9.40;;
39958;SDS011;25639;53.634;9.880;2023-05-10T12:27:53;14.23;;;8.80;;
39958;SDS011;25639;53.634;9.880;2023-05-10T12:30:24;17.35;;;10.40;;
39958;SDS011;25639;53.634;9.880;2023-05-10T12:32:51;13.88;;;9.07;;
39958;SDS011;25639;53.634;9.880;2023-05-10T12:35:17;13.77;;;9.82;;
39958;SDS011;25639;53.634;9.880;2023-05-10T12:37:46;15.93;;;9.55;;
39958;SDS011;25639;53.634;9.880;2023-05-10T12:40:12;14.88;;;9.10;;
39958;SDS011;25639;53.634;9.880;2023-05-10T12:42:38;10.65;;;7.97;;
39958;SDS011;25639;53.634;9.880;2023-05-10T12:45:05;12.70;;;8.70;;
39958;SDS011;25639;53.634;9.880;2023-05-10T12:47:31;11.80;;;8.63;;
39958;SDS011;25639;53.634;9.880;2023-05-10T12:49:57;13.73;;;8.50;;
39958;SDS011;25639;53.634;9.880;2023-05-10T12:52:23;13.80;;;9.55;;
39958;SDS011;25639;53.634;9.880;2023-05-10T12:54:48;13.52;;;8.82;;
39958;SDS011;25639;53.634;9.880;2023-05-10T12:57:14;10.98;;;7.88;;
39958;SDS011;25639;53.634;9.880;2023-05-10T12:59:39;15.30;;;8.73;;
39958;SDS011;25639;53.634;9.880;2023-05-10T13:02:05;11.02;;;8.70;;
39958;SDS011;25639;53.634;9.880;2023-05-10T13:04:31;13.68;;;8.48;;
39958;SDS011;25639;53.634;9.880;2023-05-10T13:06:56;12.15;;;8.98;;
39958;SDS011;25639;53.634;9.880;2023-05-10T13:09:23;11.43;;;8.13;;
39958;SDS011;25639;53.634;9.880;2023-05-10T13:11:54;8.70;;;7.63;;
39958;SDS011;25639;53.634;9.880;2023-05-10T13:14:19;11.20;;;7.28;;
39958;SDS011;25639;53.634;9.880;2023-05-10T13:16:45;13.27;;;7.75;;
39958;SDS011;25639;53.634;9.880;2023-05-10T13:19:11;13.63;;;8.88;;
39958;SDS011;25639;53.634;9.880;2023-05-10T13:21:37;12.15;;;7.78;;
39958;SDS011;25639;53.634;9.880;2023-05-10T13:24:02;11.65;;;8.15;;
39958;SDS011;25639;53.634;9.880;2023-05-10T13:26:27;13.25;;;8.50;;
39958;SDS011;25639;53.634;9.880;2023-05-10T13:28:53;12.05;;;7.97;;
39958;SDS011;25639;53.634;9.880;2023-05-10T13:31:20;10.65;;;8.40;;
39958;SDS011;25639;53.634;9.880;2023-05-10T13:33:46;13.55;;;8.68;;
39958;SDS011;25639;53.634;9.880;2023-05-10T13:36:11;12.07;;;8.75;;
39958;SDS011;25639;53.634;9.880;2023-05-10T13:38:36;19.48;;;9.43;;
39958;SDS011;25639;53.634;9.880;2023-05-10T13:41:02;15.82;;;10.23;;
39958;SDS011;25639;53.634;9.880;2023-05-10T13:43:28;13.50;;;9.50;;
39958;SDS011;25639;53.634;9.880;2023-05-10T13:45:54;18.90;;;11.48;;
39958;SDS011;25639;53.634;9.880;2023-05-10T13:48:19;15.43;;;10.68;;
39958;SDS011;25639;53.634;9.880;2023-05-10T13:50:45;15.05;;;11.60;;
39958;SDS011;25639;53.634;9.880;2023-05-10T13:53:11;18.13;;;10.95;;
39958;SDS011;25639;53.634;9.880;2023-05-10T13:55:36;15.80;;;9.98;;
39958;SDS011;25639;53.634;9.880;2023-05-10T13:58:01;12.20;;;9.88;;
39958;SDS011;25639;53.634;9.880;2023-05-10T14:00:27;14.38;;;9.85;;
39958;SDS011;25639;53.634;9.880;2023-05-10T14:02:53;14.23;;;9.55;;
39958;SDS011;25639;53.634;9.880;2023-05-10T14:05:18;14.32;;;9.82;;
39958;SDS011;25639;53.634;9.880;2023-05-10T14:07:43;13.32;;;9.38;;
39958;SDS011;25639;53.634;9.880;2023-05-10T14:10:09;14.85;;;9.95;;
39958;SDS011;25639;53.634;9.880;2023-05-10T14:12:34;12.27;;;9.73;;
39958;SDS011;25639;53.634;9.880;2023-05-10T14:14:59;13.48;;;10.20;;
39958;SDS011;25639;53.634;9.880;2023-05-10T14:17:25;12.82;;;9.10;;
39958;SDS011;25639;53.634;9.880;2023-05-10T14:19:50;11.15;;;8.52;;
39958;SDS011;25639;53.634;9.880;2023-05-10T14:22:15;11.75;;;8.32;;
39958;SDS011;25639;53.634;9.880;2023-05-10T14:24:40;11.05;;;8.43;;
39958;SDS011;25639;53.634;9.880;2023-05-10T14:27:06;11.07;;;8.13;;
39958;SDS011;25639;53.634;9.880;2023-05-10T14:29:31;16.10;;;8.43;;
39958;SDS011;25639;53.634;9.880;2023-05-10T14:31:57;11.60;;;8.38;;
39958;SDS011;25639;53.634;9.880;2023-05-10T14:34:23;16.50;;;8.95;;
39958;SDS011;25639;53.634;9.880;2023-05-10T14:36:48;11.13;;;8.95;;
39958;SDS011;25639;53.634;9.880;2023-05-10T14:39:13;17.20;;;8.80;;
39958;SDS011;25639;53.634;9.880;2023-05-10T14:41:39;11.85;;;8.50;;
39958;SDS011;25639;53.634;9.880;2023-05-10T14:44:06;11.18;;;8.07;;
39958;SDS011;25639;53.634;9.880;2023-05-10T14:46:31;13.13;;;8.30;;
39958;SDS011;25639;53.634;9.880;2023-05-10T14:48:57;9.32;;;7.90;;
39958;SDS011;25639;53.634;9.880;2023-05-10T14:51:22;12.18;;;7.85;;
39958;SDS011;25639;53.634;9.880;2023-05-10T14:53:50;12.75;;;8.90;;
39958;SDS011;25639;53.634;9.880;2023-05-10T14:56:15;12.73;;;8.40;;
39958;SDS011;25639;53.634;9.880;2023-05-10T14:58:41;10.07;;;7.55;;
39958;SDS011;25639;53.634;9.880;2023-05-10T15:01:06;8.93;;;6.50;;
39958;SDS011;25639;53.634;9.880;2023-05-10T15:03:31;9.00;;;7.22;;
39958;SDS011;25639;53.634;9.880;2023-05-10T15:05:56;9.90;;;7.00;;
39958;SDS011;25639;53.634;9.880;2023-05-10T15:08:22;9.00;;;7.43;;
39958;SDS011;25639;53.634;9.880;2023-05-10T15:10:49;9.80;;;7.20;;
39958;SDS011;25639;53.634;9.880;2023-05-10T15:13:15;11.55;;;7.10;;
39958;SDS011;25639;53.634;9.880;2023-05-10T15:15:40;11.98;;;7.45;;
39958;SDS011;25639;53.634;9.880;2023-05-10T15:18:06;10.70;;;8.07;;
39958;SDS011;25639;53.634;9.880;2023-05-10T15:20:31;11.80;;;8.35;;